sensor_id;sensor_type;location;lat;lon;timestamp;pressure;altitude;pressure_sealevel;temperature;humidity
77041;BME280;65974;42.664;23.264;2023-10-19T00:04:06;94493.41;;;7.26;88.34
77041;BME280;65974;42.664;23.264;2023-10-19T00:06:32;94484.34;;;7.27;88.13
77041;BME280;65974;42.664;23.264;2023-10-19T00:08:58;94479.63;;;7.17;88.33
77041;BME280;65974;42.664;23.264;2023-10-19T00:11:24;94474.34;;;7.17;87.98
77041;BME280;65974;42.664;23.264;2023-10-19T00:13:52;94469.16;;;7.24;87.70
77041;BME280;65974;42.664;23.264;2023-10-19T00:16:23;94462.28;;;7.19;87.84
77041;BME280;65974;42.664;23.264;2023-10-19T00:19:01;94475.00;;;7.10;87.73
77041;BME280;65974;42.664;23.264;2023-10-19T00:21:28;94459.16;;;7.14;87.76
77041;BME280;65974;42.664;23.264;2023-10-19T00:23:55;94459.50;;;7.12;88.24
77041;BME280;65974;42.664;23.264;2023-10-19T00:26:29;94465.25;;;7.18;87.83
77041;BME280;65974;42.664;23.264;2023-10-19T00:28:56;94446.72;;;7.18;87.92
77041;BME280;65974;42.664;23.264;2023-10-19T00:31:26;94445.66;;;7.22;87.60
77041;BME280;65974;42.664;23.264;2023-10-19T00:33:58;94450.22;;;7.22;87.58
77041;BME280;65974;42.664;23.264;2023-10-19T00:36:26;94444.06;;;7.18;87.82
77041;BME280;65974;42.664;23.264;2023-10-19T00:38:52;94448.56;;;7.14;87.90
77041;BME280;65974;42.664;23.264;2023-10-19T00:41:27;94444.16;;;6.98;87.61
77041;BME280;65974;42.664;23.264;2023-10-19T00:43:55;94445.97;;;6.94;87.80
77041;BME280;65974;42.664;23.264;2023-10-19T00:46:31;94447.56;;;6.99;87.77
77041;BME280;65974;42.664;23.264;2023-10-19T00:49:10;94449.84;;;6.78;88.09
77041;BME280;65974;42.664;23.264;2023-10-19T00:51:45;94442.91;;;6.70;88.96
77041;BME280;65974;42.664;23.264;2023-10-19T00:54:34;94450.81;;;6.66;89.67
77041;BME280;65974;42.664;23.264;2023-10-19T00:57:04;94437.56;;;6.66;90.15
77041;BME280;65974;42.664;23.264;2023-10-19T00:59:32;94441.47;;;6.72;90.19
77041;BME280;65974;42.664;23.264;2023-10-19T01:02:03;94439.03;;;6.86;89.45
77041;BME280;65974;42.664;23.264;2023-10-19T01:04:48;94436.94;;;6.95;89.95
77041;BME280;65974;42.664;23.264;2023-10-19T01:07:33;94438.28;;;6.86;89.03
77041;BME280;65974;42.664;23.264;2023-10-19T01:10:04;94444.66;;;6.81;89.00
77041;BME280;65974;42.664;23.264;2023-10-19T01:12:31;94442.69;;;6.78;89.02
77041;BME280;65974;42.664;23.264;2023-10-19T01:15:18;94444.19;;;6.79;89.41
77041;BME280;65974;42.664;23.264;2023-10-19T01:17:52;94448.63;;;6.72;88.82
77041;BME280;65974;42.664;23.264;2023-10-19T01:20:36;94450.03;;;6.66;89.07
77041;BME280;65974;42.664;23.264;2023-10-19T01:23:16;94442.03;;;6.62;88.88
77041;BME280;65974;42.664;23.264;2023-10-19T01:28:24;94440.22;;;6.66;89.25
77041;BME280;65974;42.664;23.264;2023-10-19T01:31:16;94441.91;;;6.55;88.54
77041;BME280;65974;42.664;23.264;2023-10-19T01:33:49;94446.91;;;6.60;88.77
77041;BME280;65974;42.664;23.264;2023-10-19T01:36:15;94445.38;;;6.59;88.63
77041;BME280;65974;42.664;23.264;2023-10-19T01:38:54;94442.31;;;6.57;88.38
77041;BME280;65974;42.664;23.264;2023-10-19T01:41:23;94445.56;;;6.47;88.84
77041;BME280;65974;42.664;23.264;2023-10-19T01:43:50;94445.25;;;6.52;88.64
77041;BME280;65974;42.664;23.264;2023-10-19T01:46:21;94452.91;;;6.57;88.75
77041;BME280;65974;42.664;23.264;2023-10-19T01:48:52;94451.72;;;6.55;88.51
77041;BME280;65974;42.664;23.264;2023-10-19T01:51:23;94456.97;;;6.51;88.81
77041;BME280;65974;42.664;23.264;2023-10-19T01:53:50;94446.03;;;6.53;88.35
77041;BME280;65974;42.664;23.264;2023-10-19T01:56:17;94454.84;;;6.60;87.91
77041;BME280;65974;42.664;23.264;2023-10-19T01:58:45;94450.25;;;6.57;88.26
77041;BME280;65974;42.664;23.264;2023-10-19T02:01:14;94446.16;;;6.60;88.97
77041;BME280;65974;42.664;23.264;2023-10-19T02:03:47;94447.63;;;6.57;88.65
77041;BME280;65974;42.664;23.264;2023-10-19T02:06:19;94441.59;;;6.60;88.80
77041;BME280;65974;42.664;23.264;2023-10-19T02:08:51;94439.38;;;6.62;89.01
77041;BME280;65974;42.664;23.264;2023-10-19T02:11:21;94447.75;;;6.64;88.48
77041;BME280;65974;42.664;23.264;2023-10-19T02:13:48;94447.63;;;6.57;88.92
77041;BME280;65974;42.664;23.264;2023-10-19T02:16:17;94448.19;;;6.47;88.77
77041;BME280;65974;42.664;23.264;2023-10-19T02:18:50;94457.91;;;6.43;88.69
77041;BME280;65974;42.664;23.264;2023-10-19T02:21:17;94454.59;;;6.46;88.41
77041;BME280;65974;42.664;23.264;2023-10-19T02:24:01;94444.00;;;6.46;88.47
77041;BME280;65974;42.664;23.264;2023-10-19T02:26:26;94449.75;;;6.52;88.49
77041;BME280;65974;42.664;23.264;2023-10-19T02:28:53;94437.41;;;6.56;88.45
77041;BME280;65974;42.664;23.264;2023-10-19T02:31:21;94443.72;;;6.51;88.77
77041;BME280;65974;42.664;23.264;2023-10-19T02:33:48;94447.22;;;6.36;88.21
77041;BME280;65974;42.664;23.264;2023-10-19T02:36:20;94447.34;;;6.24;88.64
77041;BME280;65974;42.664;23.264;2023-10-19T02:38:45;94451.41;;;6.18;89.06
77041;BME280;65974;42.664;23.264;2023-10-19T02:41:15;94439.16;;;6.10;89.27
77041;BME280;65974;42.664;23.264;2023-10-19T02:43:41;94449.19;;;6.20;89.14
77041;BME280;65974;42.664;23.264;2023-10-19T02:46:11;94437.97;;;6.26;88.71
77041;BME280;65974;42.664;23.264;2023-10-19T02:48:40;94444.84;;;6.31;88.84
77041;BME280;65974;42.664;23.264;2023-10-19T02:51:15;94439.63;;;6.35;89.52
77041;BME280;65974;42.664;23.264;2023-10-19T02:53:40;94438.88;;;6.34;89.82
77041;BME280;65974;42.664;23.264;2023-10-19T02:56:14;94444.84;;;6.31;90.02
77041;BME280;65974;42.664;23.264;2023-10-19T02:58:45;94444.72;;;6.24;88.94
77041;BME280;65974;42.664;23.264;2023-10-19T03:01:21;94442.78;;;6.21;88.68
77041;BME280;65974;42.664;23.264;2023-10-19T03:03:51;94439.31;;;6.17;88.71
77041;BME280;65974;42.664;23.264;2023-10-19T03:06:21;94438.91;;;6.15;88.89
77041;BME280;65974;42.664;23.264;2023-10-19T03:08:47;94441.53;;;6.15;88.78
77041;BME280;65974;42.664;23.264;2023-10-19T03:11:14;94435.47;;;6.14;88.79
77041;BME280;65974;42.664;23.264;2023-10-19T03:13:40;94429.91;;;6.19;88.78
77041;BME280;65974;42.664;23.264;2023-10-19T03:16:07;94425.47;;;6.23;88.56
77041;BME280;65974;42.664;23.264;2023-10-19T03:18:34;94432.63;;;6.23;88.89
77041;BME280;65974;42.664;23.264;2023-10-19T03:21:01;94430.25;;;6.18;88.33
77041;BME280;65974;42.664;23.264;2023-10-19T03:23:27;94438.41;;;6.09;88.23
77041;BME280;65974;42.664;23.264;2023-10-19T03:25:56;94437.34;;;6.14;87.97
77041;BME280;65974;42.664;23.264;2023-10-19T03:28:22;94436.94;;;6.12;88.20
77041;BME280;65974;42.664;23.264;2023-10-19T03:30:51;94438.69;;;6.04;88.35
77041;BME280;65974;42.664;23.264;2023-10-19T03:33:16;94434.91;;;6.05;88.20
77041;BME280;65974;42.664;23.264;2023-10-19T03:35:43;94437.16;;;6.03;88.44
77041;BME280;65974;42.664;23.264;2023-10-19T03:38:09;94433.41;;;6.04;88.36
77041;BME280;65974;42.664;23.264;2023-10-19T03:40:42;94425.81;;;6.03;88.38
77041;BME280;65974;42.664;23.264;2023-10-19T03:43:16;94434.44;;;6.00;88.84
77041;BME280;65974;42.664;23.264;2023-10-19T03:45:44;94424.50;;;5.93;89.10
77041;BME280;65974;42.664;23.264;2023-10-19T03:48:21;94417.75;;;5.96;89.14
77041;BME280;65974;42.664;23.264;2023-10-19T03:50:55;94411.06;;;6.02;89.57
77041;BME280;65974;42.664;23.264;2023-10-19T03:53:22;94401.94;;;5.99;89.91
77041;BME280;65974;42.664;23.264;2023-10-19T03:55:49;94402.84;;;6.07;89.98
77041;BME280;65974;42.664;23.264;2023-10-19T03:58:20;94414.31;;;6.14;88.94
77041;BME280;65974;42.664;23.264;2023-10-19T04:00:47;94409.88;;;6.18;88.24
77041;BME280;65974;42.664;23.264;2023-10-19T04:03:17;94405.94;;;6.09;88.53
77041;BME280;65974;42.664;23.264;2023-10-19T04:05:43;94406.13;;;6.00;89.10
77041;BME280;65974;42.664;23.264;2023-10-19T04:08:12;94420.41;;;5.96;88.84
77041;BME280;65974;42.664;23.264;2023-10-19T04:10:40;94420.72;;;5.94;89.67
77041;BME280;65974;42.664;23.264;2023-10-19T04:13:26;94411.28;;;5.93;89.75
77041;BME280;65974;42.664;23.264;2023-10-19T04:15:53;94419.16;;;5.90;89.73
77041;BME280;65974;42.664;23.264;2023-10-19T04:18:18;94417.59;;;5.89;89.93
77041;BME280;65974;42.664;23.264;2023-10-19T04:20:43;94414.69;;;5.94;89.75
77041;BME280;65974;42.664;23.264;2023-10-19T04:23:18;94412.47;;;5.96;89.95
77041;BME280;65974;42.664;23.264;2023-10-19T04:25:46;94409.41;;;5.94;90.08
77041;BME280;65974;42.664;23.264;2023-10-19T04:28:12;94413.09;;;5.89;90.64
77041;BME280;65974;42.664;23.264;2023-10-19T04:30:41;94411.91;;;5.87;90.61
77041;BME280;65974;42.664;23.264;2023-10-19T04:33:06;94407.72;;;5.86;90.66
77041;BME280;65974;42.664;23.264;2023-10-19T04:35:36;94408.13;;;5.88;90.19
77041;BME280;65974;42.664;23.264;2023-10-19T04:38:03;94407.03;;;5.89;91.01
77041;BME280;65974;42.664;23.264;2023-10-19T04:40:31;94403.97;;;5.87;90.84
77041;BME280;65974;42.664;23.264;2023-10-19T04:42:57;94404.38;;;5.89;91.14
77041;BME280;65974;42.664;23.264;2023-10-19T04:45:23;94395.00;;;5.91;90.79
77041;BME280;65974;42.664;23.264;2023-10-19T04:47:52;94394.38;;;5.98;90.85
77041;BME280;65974;42.664;23.264;2023-10-19T04:50:20;94391.03;;;6.01;90.99
77041;BME280;65974;42.664;23.264;2023-10-19T04:52:46;94395.63;;;6.04;90.97
77041;BME280;65974;42.664;23.264;2023-10-19T04:55:12;94390.81;;;6.09;90.94
77041;BME280;65974;42.664;23.264;2023-10-19T04:57:38;94392.75;;;6.12;91.36
77041;BME280;65974;42.664;23.264;2023-10-19T05:00:04;94399.34;;;6.22;91.17
77041;BME280;65974;42.664;23.264;2023-10-19T05:02:30;94392.75;;;6.32;90.84
77041;BME280;65974;42.664;23.264;2023-10-19T05:04:55;94394.66;;;6.35;90.57
77041;BME280;65974;42.664;23.264;2023-10-19T05:07:21;94398.50;;;6.37;90.91
77041;BME280;65974;42.664;23.264;2023-10-19T05:09:46;94407.34;;;6.45;91.46
77041;BME280;65974;42.664;23.264;2023-10-19T05:12:14;94405.50;;;6.49;91.31
77041;BME280;65974;42.664;23.264;2023-10-19T05:14:40;94405.88;;;6.47;91.75
77041;BME280;65974;42.664;23.264;2023-10-19T05:17:09;94399.22;;;6.57;91.61
77041;BME280;65974;42.664;23.264;2023-10-19T05:19:36;94406.47;;;6.60;91.70
77041;BME280;65974;42.664;23.264;2023-10-19T05:22:04;94403.59;;;6.68;91.94
77041;BME280;65974;42.664;23.264;2023-10-19T05:24:30;94401.03;;;6.75;91.72
77041;BME280;65974;42.664;23.264;2023-10-19T05:26:56;94398.94;;;6.84;91.98
77041;BME280;65974;42.664;23.264;2023-10-19T05:29:22;94406.56;;;6.89;92.05
77041;BME280;65974;42.664;23.264;2023-10-19T05:31:52;94405.84;;;6.92;91.93
77041;BME280;65974;42.664;23.264;2023-10-19T05:34:26;94411.56;;;6.94;92.35
77041;BME280;65974;42.664;23.264;2023-10-19T05:37:02;94421.03;;;6.95;92.23
77041;BME280;65974;42.664;23.264;2023-10-19T05:39:28;94424.91;;;7.01;92.25
77041;BME280;65974;42.664;23.264;2023-10-19T05:41:57;94421.84;;;6.99;92.54
77041;BME280;65974;42.664;23.264;2023-10-19T05:44:26;94421.41;;;6.94;92.22
77041;BME280;65974;42.664;23.264;2023-10-19T05:46:52;94423.75;;;6.99;91.83
77041;BME280;65974;42.664;23.264;2023-10-19T05:49:17;94421.22;;;7.06;91.63
77041;BME280;65974;42.664;23.264;2023-10-19T05:51:43;94432.97;;;7.09;91.75
77041;BME280;65974;42.664;23.264;2023-10-19T05:54:10;94425.84;;;7.13;91.21
77041;BME280;65974;42.664;23.264;2023-10-19T05:56:35;94429.94;;;7.07;90.82
77041;BME280;65974;42.664;23.264;2023-10-19T05:59:01;94428.56;;;6.93;92.00
77041;BME280;65974;42.664;23.264;2023-10-19T06:01:27;94425.72;;;7.05;92.60
77041;BME280;65974;42.664;23.264;2023-10-19T06:03:53;94430.34;;;7.09;92.42
77041;BME280;65974;42.664;23.264;2023-10-19T06:06:20;94437.16;;;7.10;92.67
77041;BME280;65974;42.664;23.264;2023-10-19T06:08:45;94423.97;;;7.13;92.58
77041;BME280;65974;42.664;23.264;2023-10-19T06:11:11;94422.06;;;7.14;92.83
77041;BME280;65974;42.664;23.264;2023-10-19T06:13:36;94425.84;;;7.13;93.03
77041;BME280;65974;42.664;23.264;2023-10-19T06:16:02;94419.09;;;7.15;92.48
77041;BME280;65974;42.664;23.264;2023-10-19T06:18:27;94428.53;;;7.16;92.84
77041;BME280;65974;42.664;23.264;2023-10-19T06:20:55;94419.09;;;7.15;92.82
77041;BME280;65974;42.664;23.264;2023-10-19T06:23:21;94420.69;;;7.20;92.98
77041;BME280;65974;42.664;23.264;2023-10-19T06:25:46;94416.63;;;7.29;92.68
77041;BME280;65974;42.664;23.264;2023-10-19T06:28:12;94415.97;;;7.36;91.92
77041;BME280;65974;42.664;23.264;2023-10-19T06:30:37;94423.22;;;7.39;92.66
77041;BME280;65974;42.664;23.264;2023-10-19T06:33:05;94417.25;;;7.45;92.47
77041;BME280;65974;42.664;23.264;2023-10-19T06:35:31;94417.34;;;7.52;92.03
77041;BME280;65974;42.664;23.264;2023-10-19T06:37:58;94425.00;;;7.57;91.50
77041;BME280;65974;42.664;23.264;2023-10-19T06:40:24;94436.03;;;7.63;91.23
77041;BME280;65974;42.664;23.264;2023-10-19T06:42:52;94427.75;;;7.64;91.29
77041;BME280;65974;42.664;23.264;2023-10-19T06:45:20;94436.16;;;7.70;91.21
77041;BME280;65974;42.664;23.264;2023-10-19T06:47:47;94433.59;;;7.77;91.02
77041;BME280;65974;42.664;23.264;2023-10-19T06:50:14;94428.75;;;7.82;90.51
77041;BME280;65974;42.664;23.264;2023-10-19T06:52:44;94419.72;;;7.87;90.12
77041;BME280;65974;42.664;23.264;2023-10-19T06:55:11;94413.38;;;7.95;90.12
77041;BME280;65974;42.664;23.264;2023-10-19T06:57:55;94404.06;;;8.08;90.03
77041;BME280;65974;42.664;23.264;2023-10-19T07:00:23;94404.94;;;8.19;90.05
77041;BME280;65974;42.664;23.264;2023-10-19T07:02:50;94403.16;;;8.27;89.11
77041;BME280;65974;42.664;23.264;2023-10-19T07:05:16;94402.09;;;8.35;89.01
77041;BME280;65974;42.664;23.264;2023-10-19T07:07:50;94404.81;;;8.42;88.18
77041;BME280;65974;42.664;23.264;2023-10-19T07:10:19;94420.34;;;8.40;88.54
77041;BME280;65974;42.664;23.264;2023-10-19T07:12:46;94414.34;;;8.46;88.55
77041;BME280;65974;42.664;23.264;2023-10-19T07:15:13;94414.03;;;8.51;88.57
77041;BME280;65974;42.664;23.264;2023-10-19T07:17:43;94415.19;;;8.54;87.55
77041;BME280;65974;42.664;23.264;2023-10-19T07:20:10;94424.28;;;8.53;87.75
77041;BME280;65974;42.664;23.264;2023-10-19T07:22:50;94420.94;;;8.59;87.45
77041;BME280;65974;42.664;23.264;2023-10-19T07:25:16;94411.13;;;8.67;86.72
77041;BME280;65974;42.664;23.264;2023-10-19T07:27:46;94410.84;;;8.76;86.16
77041;BME280;65974;42.664;23.264;2023-10-19T07:30:12;94418.47;;;8.81;85.08
77041;BME280;65974;42.664;23.264;2023-10-19T07:32:40;94422.31;;;8.83;83.54
77041;BME280;65974;42.664;23.264;2023-10-19T07:35:06;94422.00;;;8.95;83.39
77041;BME280;65974;42.664;23.264;2023-10-19T07:37:32;94423.56;;;8.96;83.38
77041;BME280;65974;42.664;23.264;2023-10-19T07:39:57;94420.91;;;9.00;83.28
77041;BME280;65974;42.664;23.264;2023-10-19T07:42:24;94426.22;;;9.00;83.03
77041;BME280;65974;42.664;23.264;2023-10-19T07:44:50;94428.50;;;9.01;82.32
77041;BME280;65974;42.664;23.264;2023-10-19T07:47:16;94436.53;;;9.05;82.67
77041;BME280;65974;42.664;23.264;2023-10-19T07:49:41;94426.22;;;9.00;83.09
77041;BME280;65974;42.664;23.264;2023-10-19T07:52:08;94427.00;;;9.00;83.37
77041;BME280;65974;42.664;23.264;2023-10-19T07:54:36;94430.84;;;9.06;84.34
77041;BME280;65974;42.664;23.264;2023-10-19T07:57:03;94429.69;;;9.07;83.87
77041;BME280;65974;42.664;23.264;2023-10-19T07:59:32;94429.28;;;9.02;84.01
77041;BME280;65974;42.664;23.264;2023-10-19T08:01:58;94428.19;;;9.06;83.07
77041;BME280;65974;42.664;23.264;2023-10-19T08:04:28;94427.78;;;9.04;83.02
77041;BME280;65974;42.664;23.264;2023-10-19T08:06:53;94424.38;;;9.07;84.23
77041;BME280;65974;42.664;23.264;2023-10-19T08:09:21;94425.19;;;9.11;84.08
77041;BME280;65974;42.664;23.264;2023-10-19T08:11:50;94421.06;;;9.17;83.80
77041;BME280;65974;42.664;23.264;2023-10-19T08:14:22;94414.69;;;9.29;83.39
77041;BME280;65974;42.664;23.264;2023-10-19T08:16:50;94422.00;;;9.39;83.65
77041;BME280;65974;42.664;23.264;2023-10-19T08:19:16;94415.97;;;9.49;82.70
77041;BME280;65974;42.664;23.264;2023-10-19T08:21:41;94415.28;;;9.63;81.71
77041;BME280;65974;42.664;23.264;2023-10-19T08:24:08;94414.16;;;9.64;80.92
77041;BME280;65974;42.664;23.264;2023-10-19T08:26:39;94413.84;;;9.72;81.81
77041;BME280;65974;42.664;23.264;2023-10-19T08:29:07;94420.00;;;9.90;80.20
77041;BME280;65974;42.664;23.264;2023-10-19T08:31:41;94420.38;;;9.92;78.90
77041;BME280;65974;42.664;23.264;2023-10-19T08:34:13;94405.19;;;9.89;79.41
77041;BME280;65974;42.664;23.264;2023-10-19T08:36:39;94415.84;;;9.93;79.87
77041;BME280;65974;42.664;23.264;2023-10-19T08:39:09;94414.38;;;10.02;78.79
77041;BME280;65974;42.664;23.264;2023-10-19T08:41:37;94408.34;;;10.12;79.65
77041;BME280;65974;42.664;23.264;2023-10-19T08:44:07;94414.09;;;10.29;79.07
77041;BME280;65974;42.664;23.264;2023-10-19T08:46:45;94411.13;;;10.41;78.21
77041;BME280;65974;42.664;23.264;2023-10-19T08:49:13;94422.53;;;10.45;78.16
77041;BME280;65974;42.664;23.264;2023-10-19T08:51:40;94416.81;;;10.43;77.23
77041;BME280;65974;42.664;23.264;2023-10-19T08:54:10;94412.28;;;10.47;77.43
77041;BME280;65974;42.664;23.264;2023-10-19T08:56:37;94424.47;;;10.58;77.00
77041;BME280;65974;42.664;23.264;2023-10-19T08:59:02;94427.16;;;10.76;76.65
77041;BME280;65974;42.664;23.264;2023-10-19T09:01:28;94412.72;;;10.77;75.28
77041;BME280;65974;42.664;23.264;2023-10-19T09:03:58;94405.09;;;10.79;75.17
77041;BME280;65974;42.664;23.264;2023-10-19T09:06:25;94409.69;;;10.85;75.25
77041;BME280;65974;42.664;23.264;2023-10-19T09:08:50;94406.66;;;11.08;75.11
77041;BME280;65974;42.664;23.264;2023-10-19T09:11:16;94400.94;;;11.34;75.16
77041;BME280;65974;42.664;23.264;2023-10-19T09:13:50;94394.41;;;11.56;73.48
77041;BME280;65974;42.664;23.264;2023-10-19T09:16:18;94386.78;;;11.80;72.63
77041;BME280;65974;42.664;23.264;2023-10-19T09:18:46;94378.38;;;11.88;72.12
77041;BME280;65974;42.664;23.264;2023-10-19T09:21:16;94375.25;;;12.04;71.83
77041;BME280;65974;42.664;23.264;2023-10-19T09:23:52;94367.19;;;12.21;71.47
77041;BME280;65974;42.664;23.264;2023-10-19T09:26:21;94369.03;;;12.35;71.58
77041;BME280;65974;42.664;23.264;2023-10-19T09:28:49;94361.25;;;12.55;69.88
77041;BME280;65974;42.664;23.264;2023-10-19T09:31:14;94359.31;;;12.62;69.23
77041;BME280;65974;42.664;23.264;2023-10-19T09:33:42;94367.59;;;12.82;67.09
77041;BME280;65974;42.664;23.264;2023-10-19T09:36:09;94354.97;;;12.82;68.18
77041;BME280;65974;42.664;23.264;2023-10-19T09:38:49;94365.25;;;12.87;67.97
77041;BME280;65974;42.664;23.264;2023-10-19T09:41:19;94352.22;;;12.96;67.68
77041;BME280;65974;42.664;23.264;2023-10-19T09:43:47;94345.22;;;13.13;67.57
77041;BME280;65974;42.664;23.264;2023-10-19T09:46:22;94344.00;;;13.21;66.88
77041;BME280;65974;42.664;23.264;2023-10-19T09:48:49;94350.06;;;13.29;66.47
77041;BME280;65974;42.664;23.264;2023-10-19T09:51:18;94343.81;;;13.42;66.48
77041;BME280;65974;42.664;23.264;2023-10-19T09:53:49;94347.91;;;13.54;64.34
77041;BME280;65974;42.664;23.264;2023-10-19T09:56:26;94350.50;;;13.61;63.36
77041;BME280;65974;42.664;23.264;2023-10-19T09:58:57;94348.63;;;13.58;64.04
77041;BME280;65974;42.664;23.264;2023-10-19T10:01:25;94335.03;;;13.42;64.30
77041;BME280;65974;42.664;23.264;2023-10-19T10:03:52;94338.25;;;13.26;65.47
77041;BME280;65974;42.664;23.264;2023-10-19T10:09:19;94338.78;;;13.03;65.81
77041;BME280;65974;42.664;23.264;2023-10-19T10:11:49;94332.34;;;12.97;66.04
77041;BME280;65974;42.664;23.264;2023-10-19T10:14:35;94325.03;;;13.08;66.23
77041;BME280;65974;42.664;23.264;2023-10-19T10:17:04;94328.00;;;13.14;65.95
77041;BME280;65974;42.664;23.264;2023-10-19T10:19:34;94329.50;;;13.18;65.63
77041;BME280;65974;42.664;23.264;2023-10-19T10:22:10;94313.75;;;13.28;66.39
77041;BME280;65974;42.664;23.264;2023-10-19T10:24:46;94315.81;;;13.50;64.91
77041;BME280;65974;42.664;23.264;2023-10-19T10:27:15;94301.91;;;13.66;64.25
77041;BME280;65974;42.664;23.264;2023-10-19T10:29:57;94300.88;;;13.86;62.70
77041;BME280;65974;42.664;23.264;2023-10-19T10:35:08;94286.94;;;14.02;62.83
77041;BME280;65974;42.664;23.264;2023-10-19T10:37:36;94291.38;;;14.12;62.47
77041;BME280;65974;42.664;23.264;2023-10-19T10:40:02;94285.94;;;14.19;62.53
77041;BME280;65974;42.664;23.264;2023-10-19T10:42:31;94278.97;;;14.25;62.44
77041;BME280;65974;42.664;23.264;2023-10-19T10:44:59;94266.66;;;14.31;61.88
77041;BME280;65974;42.664;23.264;2023-10-19T10:47:24;94261.66;;;14.33;61.86
77041;BME280;65974;42.664;23.264;2023-10-19T10:49:58;94257.38;;;14.39;61.80
77041;BME280;65974;42.664;23.264;2023-10-19T10:52:25;94252.38;;;14.41;62.26
77041;BME280;65974;42.664;23.264;2023-10-19T10:54:51;94261.13;;;14.45;61.97
77041;BME280;65974;42.664;23.264;2023-10-19T10:57:18;94252.59;;;14.50;62.16
77041;BME280;65974;42.664;23.264;2023-10-19T10:59:44;94248.00;;;14.51;62.76
77041;BME280;65974;42.664;23.264;2023-10-19T11:02:17;94241.31;;;14.62;62.35
77041;BME280;65974;42.664;23.264;2023-10-19T11:04:44;94228.03;;;14.78;61.51
77041;BME280;65974;42.664;23.264;2023-10-19T11:07:17;94228.00;;;14.82;61.03
77041;BME280;65974;42.664;23.264;2023-10-19T11:09:44;94222.97;;;14.84;61.61
77041;BME280;65974;42.664;23.264;2023-10-19T11:12:11;94224.41;;;14.89;61.33
77041;BME280;65974;42.664;23.264;2023-10-19T11:14:37;94216.84;;;14.84;62.37
77041;BME280;65974;42.664;23.264;2023-10-19T11:17:12;94209.78;;;14.93;62.13
77041;BME280;65974;42.664;23.264;2023-10-19T11:19:40;94218.38;;;15.04;62.43
77041;BME280;65974;42.664;23.264;2023-10-19T11:22:10;94217.44;;;15.14;61.14
77041;BME280;65974;42.664;23.264;2023-10-19T11:24:36;94212.59;;;15.29;59.77
77041;BME280;65974;42.664;23.264;2023-10-19T11:27:06;94202.41;;;15.20;60.75
77041;BME280;65974;42.664;23.264;2023-10-19T11:29:34;94196.34;;;15.36;59.40
77041;BME280;65974;42.664;23.264;2023-10-19T11:32:00;94188.28;;;15.36;58.99
77041;BME280;65974;42.664;23.264;2023-10-19T11:34:27;94185.75;;;15.29;59.99
77041;BME280;65974;42.664;23.264;2023-10-19T11:36:54;94186.78;;;15.35;59.45
77041;BME280;65974;42.664;23.264;2023-10-19T11:39:22;94184.03;;;15.38;60.10
77041;BME280;65974;42.664;23.264;2023-10-19T11:41:49;94183.34;;;15.34;60.87
77041;BME280;65974;42.664;23.264;2023-10-19T11:44:14;94176.78;;;15.35;60.13
77041;BME280;65974;42.664;23.264;2023-10-19T11:46:40;94175.56;;;15.40;61.32
77041;BME280;65974;42.664;23.264;2023-10-19T11:49:05;94171.19;;;15.49;60.77
77041;BME280;65974;42.664;23.264;2023-10-19T11:51:31;94172.69;;;15.50;59.52
77041;BME280;65974;42.664;23.264;2023-10-19T11:53:57;94168.75;;;15.55;59.87
77041;BME280;65974;42.664;23.264;2023-10-19T11:56:22;94173.16;;;15.65;59.37
77041;BME280;65974;42.664;23.264;2023-10-19T11:58:50;94164.75;;;15.63;58.78
77041;BME280;65974;42.664;23.264;2023-10-19T12:01:16;94172.81;;;15.63;59.07
77041;BME280;65974;42.664;23.264;2023-10-19T12:03:45;94167.28;;;15.70;59.06
77041;BME280;65974;42.664;23.264;2023-10-19T12:06:12;94161.34;;;15.79;58.50
77041;BME280;65974;42.664;23.264;2023-10-19T12:08:38;94160.44;;;15.85;58.05
77041;BME280;65974;42.664;23.264;2023-10-19T12:11:06;94149.13;;;15.78;59.53
77041;BME280;65974;42.664;23.264;2023-10-19T12:13:42;94149.19;;;15.74;59.46
77041;BME280;65974;42.664;23.264;2023-10-19T12:16:11;94143.75;;;15.78;59.89
77041;BME280;65974;42.664;23.264;2023-10-19T12:18:45;94145.59;;;15.81;60.03
77041;BME280;65974;42.664;23.264;2023-10-19T12:21:11;94154.25;;;15.88;58.80
77041;BME280;65974;42.664;23.264;2023-10-19T12:23:43;94139.56;;;15.93;58.40
77041;BME280;65974;42.664;23.264;2023-10-19T12:26:10;94141.84;;;15.94;58.76
77041;BME280;65974;42.664;23.264;2023-10-19T12:28:39;94143.44;;;16.08;58.26
77041;BME280;65974;42.664;23.264;2023-10-19T12:31:06;94133.25;;;15.99;59.38
77041;BME280;65974;42.664;23.264;2023-10-19T12:33:33;94130.19;;;16.01;59.34
77041;BME280;65974;42.664;23.264;2023-10-19T12:35:59;94133.19;;;16.03;59.18
77041;BME280;65974;42.664;23.264;2023-10-19T12:38:25;94127.75;;;16.06;59.29
77041;BME280;65974;42.664;23.264;2023-10-19T12:40:51;94125.22;;;16.15;59.20
77041;BME280;65974;42.664;23.264;2023-10-19T12:43:17;94115.31;;;16.28;57.95
77041;BME280;65974;42.664;23.264;2023-10-19T12:45:48;94114.72;;;16.21;57.94
77041;BME280;65974;42.664;23.264;2023-10-19T12:48:19;94124.31;;;16.22;58.59
77041;BME280;65974;42.664;23.264;2023-10-19T12:50:46;94113.03;;;16.27;57.65
77041;BME280;65974;42.664;23.264;2023-10-19T12:53:11;94115.81;;;16.23;58.63
77041;BME280;65974;42.664;23.264;2023-10-19T12:55:37;94109.84;;;16.32;58.25
77041;BME280;65974;42.664;23.264;2023-10-19T12:58:04;94107.50;;;16.34;58.72
77041;BME280;65974;42.664;23.264;2023-10-19T13:00:37;94113.78;;;16.27;58.95
77041;BME280;65974;42.664;23.264;2023-10-19T13:03:09;94110.44;;;16.40;57.89
77041;BME280;65974;42.664;23.264;2023-10-19T13:05:39;94106.22;;;16.39;58.26
77041;BME280;65974;42.664;23.264;2023-10-19T13:08:06;94099.84;;;16.33;58.92
77041;BME280;65974;42.664;23.264;2023-10-19T13:10:34;94102.44;;;16.36;59.13
77041;BME280;65974;42.664;23.264;2023-10-19T13:13:04;94101.03;;;16.48;57.94
77041;BME280;65974;42.664;23.264;2023-10-19T13:15:34;94100.53;;;16.53;57.79
77041;BME280;65974;42.664;23.264;2023-10-19T13:18:04;94097.50;;;16.51;58.18